createdAt,value
2019-02-26T00:00:14.380Z,4.41
2019-02-26T00:02:41.622Z,4.26
2019-02-26T00:05:07.941Z,4.02
2019-02-26T00:07:34.089Z,4.06
2019-02-26T00:10:02.616Z,4.08
2019-02-26T00:12:31.119Z,3.83
2019-02-26T00:15:00.210Z,3.70
2019-02-26T00:17:26.064Z,3.73
2019-02-26T00:19:52.300Z,3.81
2019-02-26T00:22:18.743Z,3.65
2019-02-26T00:24:46.619Z,3.95
2019-02-26T00:27:12.933Z,3.81
2019-02-26T00:29:39.108Z,3.77
2019-02-26T00:32:06.992Z,3.66
2019-02-26T00:34:34.598Z,3.95
2019-02-26T00:37:02.180Z,3.89
2019-02-26T00:39:31.377Z,3.77
2019-02-26T00:41:58.828Z,3.56
2019-02-26T00:44:27.438Z,3.44
2019-02-26T00:46:55.721Z,3.39
2019-02-26T00:49:23.706Z,3.55
2019-02-26T00:51:52.333Z,3.80
2019-02-26T00:54:20.182Z,3.75
2019-02-26T00:56:46.388Z,3.90
2019-02-26T00:59:12.495Z,3.86
2019-02-26T01:01:39.918Z,3.77
2019-02-26T01:04:06.160Z,3.81
2019-02-26T01:06:33.535Z,3.69
2019-02-26T01:09:01.833Z,3.53
2019-02-26T01:11:30.218Z,3.44
2019-02-26T01:13:57.407Z,3.31
2019-02-26T01:16:24.817Z,3.23
2019-02-26T01:18:51.505Z,3.21
2019-02-26T01:21:22.146Z,3.24
2019-02-26T01:23:47.061Z,3.39
2019-02-26T01:26:13.378Z,3.27
2019-02-26T01:28:39.755Z,3.33
2019-02-26T01:31:07.357Z,3.26
2019-02-26T01:33:34.272Z,3.26
2019-02-26T01:36:02.536Z,3.05
2019-02-26T01:38:28.631Z,2.91
2019-02-26T01:40:55.953Z,3.04
2019-02-26T01:43:22.316Z,3.13
2019-02-26T01:45:50.829Z,2.98
2019-02-26T01:48:18.523Z,2.98
2019-02-26T01:50:44.950Z,3.12
2019-02-26T01:53:14.044Z,3.23
2019-02-26T01:55:42.120Z,3.16
2019-02-26T01:58:08.220Z,3.23
2019-02-26T02:00:34.351Z,3.34
2019-02-26T02:03:00.730Z,3.34
2019-02-26T02:05:29.438Z,3.23
2019-02-26T02:07:55.963Z,3.31
2019-02-26T02:10:22.466Z,3.25
2019-02-26T02:12:48.693Z,3.32
2019-02-26T02:15:17.923Z,3.32
2019-02-26T02:17:43.504Z,3.18
2019-02-26T02:20:16.412Z,3.12
2019-02-26T02:22:44.396Z,3.04
2019-02-26T02:25:11.023Z,3.00
2019-02-26T02:27:37.330Z,3.15
2019-02-26T02:30:14.172Z,3.17
2019-02-26T02:32:38.739Z,2.97
2019-02-26T02:35:07.418Z,2.31
2019-02-26T02:37:34.490Z,2.26
2019-02-26T02:40:00.877Z,2.29
2019-02-26T02:42:27.087Z,2.26
2019-02-26T02:44:53.182Z,2.32
2019-02-26T02:47:20.482Z,2.52
2019-02-26T02:49:47.689Z,2.66
2019-02-26T02:52:14.962Z,2.59
2019-02-26T02:54:43.800Z,2.64
2019-02-26T02:57:10.027Z,2.38
2019-02-26T02:59:41.758Z,2.42
2019-02-26T03:02:06.789Z,2.38
2019-02-26T03:04:34.758Z,2.34
2019-02-26T03:07:03.284Z,2.56
2019-02-26T03:09:31.249Z,2.40
2019-02-26T03:11:57.503Z,2.07
2019-02-26T03:14:24.790Z,1.86
2019-02-26T03:16:53.379Z,1.66
2019-02-26T03:19:18.921Z,1.51
2019-02-26T03:21:47.193Z,1.42
2019-02-26T03:24:14.246Z,1.49
2019-02-26T03:26:40.312Z,1.41
2019-02-26T03:29:06.477Z,1.57
2019-02-26T03:31:35.072Z,1.62
2019-02-26T03:34:10.526Z,1.60
2019-02-26T03:36:38.305Z,1.33
2019-02-26T03:39:08.570Z,1.12
2019-02-26T03:41:34.944Z,1.14
2019-02-26T03:44:06.378Z,1.27
2019-02-26T03:46:32.940Z,1.31
2019-02-26T03:49:02.486Z,1.43
2019-02-26T03:51:30.793Z,1.49
2019-02-26T03:53:57.206Z,1.46
2019-02-26T03:56:23.521Z,1.57
2019-02-26T03:58:52.149Z,1.46
2019-02-26T04:01:19.422Z,1.55
2019-02-26T04:03:46.397Z,1.60
2019-02-26T04:06:12.716Z,1.82
2019-02-26T04:08:39.053Z,1.77
2019-02-26T04:11:05.331Z,1.73
2019-02-26T04:13:31.655Z,1.65
2019-02-26T04:15:59.596Z,1.62
2019-02-26T04:18:26.137Z,1.59
2019-02-26T04:20:52.346Z,1.75
2019-02-26T04:23:19.888Z,1.57
2019-02-26T04:25:54.057Z,1.45
2019-02-26T04:28:49.332Z,1.41
2019-02-26T04:31:54.663Z,1.19
2019-02-26T04:34:24.723Z,1.30
2019-02-26T04:37:07.165Z,1.32
2019-02-26T04:40:12.100Z,1.53
2019-02-26T04:42:48.629Z,1.59
2019-02-26T04:45:24.551Z,1.46
2019-02-26T04:47:55.461Z,1.31
2019-02-26T04:50:26.128Z,1.24
2019-02-26T04:52:50.278Z,1.26
2019-02-26T04:55:16.510Z,1.20
2019-02-26T04:57:45.657Z,0.70
2019-02-26T05:00:12.283Z,0.49
2019-02-26T05:02:38.593Z,0.48
2019-02-26T05:05:06.464Z,0.53
2019-02-26T05:07:32.968Z,0.59
2019-02-26T05:10:02.148Z,0.61
2019-02-26T05:12:30.755Z,0.52
2019-02-26T05:14:55.919Z,0.48
2019-02-26T05:17:24.653Z,0.48
2019-02-26T05:19:52.403Z,0.42
2019-02-26T05:22:19.838Z,0.47
2019-02-26T05:24:47.419Z,0.39
2019-02-26T05:27:18.898Z,0.45
2019-02-26T05:29:46.644Z,0.45
2019-02-26T05:32:12.506Z,0.50
2019-02-26T05:34:39.910Z,0.46
2019-02-26T05:37:08.122Z,0.39
2019-02-26T05:39:43.067Z,0.34
2019-02-26T05:42:13.451Z,0.35
2019-02-26T05:44:39.652Z,0.28
2019-02-26T05:47:13.229Z,0.28
2019-02-26T05:49:41.433Z,0.19
2019-02-26T05:52:08.161Z,0.15
2019-02-26T05:54:34.377Z,0.15
2019-02-26T05:57:27.086Z,0.13
2019-02-26T05:59:41.891Z,0.01
2019-02-26T06:02:10.599Z,0.08
2019-02-26T06:04:44.387Z,0.20
2019-02-26T06:07:11.289Z,0.39
2019-02-26T06:09:37.623Z,0.28
2019-02-26T06:12:11.751Z,0.11
2019-02-26T06:14:43.868Z,0.03
2019-02-26T06:17:15.537Z,0.06
2019-02-26T06:19:44.954Z,0.25
2019-02-26T06:22:17.035Z,0.28
2019-02-26T06:24:40.202Z,0.19
2019-02-26T06:27:08.645Z,0.23
2019-02-26T06:29:35.578Z,0.20
2019-02-26T06:32:10.120Z,0.28
2019-02-26T06:34:38.395Z,0.23
2019-02-26T06:37:16.411Z,0.26
2019-02-26T06:39:42.669Z,0.32
2019-02-26T06:42:10.319Z,0.32
2019-02-26T06:44:38.816Z,0.23
2019-02-26T06:47:09.047Z,0.22
2019-02-26T06:49:35.114Z,0.30
2019-02-26T06:52:02.006Z,0.41
2019-02-26T06:54:29.055Z,0.54
2019-02-26T06:56:58.037Z,0.63
2019-02-26T06:59:33.797Z,0.77
2019-02-26T07:01:59.058Z,0.86
2019-02-26T07:04:29.397Z,0.71
2019-02-26T07:06:55.357Z,0.75
2019-02-26T07:09:21.922Z,0.50
2019-02-26T07:11:48.163Z,0.71
2019-02-26T07:14:16.559Z,0.86
2019-02-26T07:16:42.771Z,1.08
2019-02-26T07:19:11.552Z,1.12
2019-02-26T07:21:38.038Z,1.07
2019-02-26T07:24:07.659Z,1.08
2019-02-26T07:26:33.797Z,1.34
2019-02-26T07:29:00.029Z,1.55
2019-02-26T07:31:26.924Z,1.32
2019-02-26T07:33:56.367Z,1.38
2019-02-26T07:36:23.692Z,1.34
2019-02-26T07:38:51.982Z,1.31
2019-02-26T07:41:20.701Z,1.38
2019-02-26T07:43:49.287Z,1.46
2019-02-26T07:46:17.058Z,1.57
2019-02-26T07:48:43.424Z,1.81
2019-02-26T07:51:09.814Z,2.01
2019-02-26T07:53:36.229Z,2.14
2019-02-26T07:56:04.517Z,2.25
2019-02-26T07:58:31.424Z,2.47
2019-02-26T08:00:58.847Z,2.72
2019-02-26T08:03:26.915Z,2.79
2019-02-26T08:05:53.279Z,2.59
2019-02-26T08:08:21.021Z,2.57
2019-02-26T08:10:48.893Z,2.80
2019-02-26T08:13:15.748Z,3.03
2019-02-26T08:15:41.963Z,3.25
2019-02-26T08:18:08.132Z,3.53
2019-02-26T08:20:35.679Z,3.84
2019-02-26T08:23:02.536Z,4.13
2019-02-26T08:25:31.440Z,4.47
2019-02-26T08:27:59.351Z,4.86
2019-02-26T08:30:26.181Z,5.28
2019-02-26T08:32:54.264Z,5.50
2019-02-26T08:35:20.826Z,5.61
2019-02-26T08:37:47.253Z,5.70
2019-02-26T08:40:13.886Z,6.04
2019-02-26T08:42:40.222Z,6.37
2019-02-26T08:45:09.981Z,6.62
2019-02-26T08:47:36.406Z,6.75
2019-02-26T08:50:07.377Z,7.20
2019-02-26T08:52:33.854Z,7.50
2019-02-26T08:55:00.035Z,7.22
2019-02-26T08:57:27.490Z,7.23
2019-02-26T08:59:54.646Z,7.23
2019-02-26T09:02:21.087Z,7.19
2019-02-26T09:04:47.763Z,7.43
2019-02-26T09:07:16.452Z,7.31
2019-02-26T09:09:42.539Z,7.50
2019-02-26T09:12:08.847Z,7.98
2019-02-26T09:14:37.575Z,7.88
2019-02-26T09:17:04.477Z,8.08
2019-02-26T09:19:33.125Z,8.41
2019-02-26T09:22:00.253Z,8.54
2019-02-26T09:24:26.541Z,8.79
2019-02-26T09:26:54.840Z,8.76
2019-02-26T09:29:22.230Z,8.91
2019-02-26T09:31:48.595Z,9.11
2019-02-26T09:34:14.801Z,9.73
2019-02-26T09:36:42.001Z,9.70
2019-02-26T09:39:10.558Z,9.80
2019-02-26T09:41:38.522Z,10.13
2019-02-26T09:44:06.795Z,9.88
2019-02-26T09:46:36.333Z,10.57
2019-02-26T09:49:03.128Z,10.78
2019-02-26T09:51:35.151Z,11.01
2019-02-26T09:54:01.132Z,11.04
2019-02-26T09:56:27.438Z,10.84
2019-02-26T09:58:53.708Z,10.75
2019-02-26T10:01:19.928Z,10.92
2019-02-26T10:03:46.077Z,11.15
2019-02-26T10:06:14.145Z,10.94
2019-02-26T10:08:40.270Z,10.94
2019-02-26T10:11:06.589Z,11.14
2019-02-26T10:13:32.798Z,11.14
2019-02-26T10:16:01.223Z,11.53
2019-02-26T10:18:27.907Z,11.60
2019-02-26T10:20:55.449Z,11.90
2019-02-26T10:23:23.517Z,11.78
2019-02-26T10:25:53.056Z,11.53
2019-02-26T10:28:19.509Z,11.61
2019-02-26T10:30:45.936Z,11.85
2019-02-26T10:33:12.167Z,12.02
2019-02-26T10:35:39.651Z,12.59
2019-02-26T10:38:08.980Z,12.62
2019-02-26T10:40:40.766Z,12.84
2019-02-26T10:43:03.228Z,12.78
2019-02-26T10:45:29.716Z,13.29
2019-02-26T10:47:56.917Z,13.21
2019-02-26T10:50:31.551Z,13.20
2019-02-26T10:53:01.400Z,13.27
2019-02-26T10:55:30.508Z,13.51
2019-02-26T10:57:54.822Z,13.69
2019-02-26T11:00:26.013Z,13.78
2019-02-26T11:02:54.185Z,13.85
2019-02-26T11:05:26.208Z,14.13
2019-02-26T11:07:53.153Z,14.12
2019-02-26T11:10:20.827Z,14.18
2019-02-26T11:12:48.245Z,13.71
2019-02-26T11:15:16.857Z,13.92
2019-02-26T11:17:45.590Z,13.40
2019-02-26T11:20:13.816Z,13.55
2019-02-26T11:22:42.250Z,13.94
2019-02-26T11:25:10.370Z,14.37
2019-02-26T11:27:38.032Z,14.12
2019-02-26T11:30:20.552Z,14.22
2019-02-26T11:32:46.237Z,14.54
2019-02-26T11:35:14.669Z,15.19
2019-02-26T11:37:42.432Z,15.40
2019-02-26T11:40:11.375Z,14.86
2019-02-26T11:42:37.626Z,15.40
2019-02-26T11:45:11.776Z,16.25
2019-02-26T11:47:39.152Z,15.64
2019-02-26T11:50:11.707Z,16.47
2019-02-26T11:52:37.585Z,16.87
2019-02-26T11:55:06.581Z,16.56
2019-02-26T11:57:37.672Z,16.45
2019-02-26T12:00:09.178Z,16.83
2019-02-26T12:02:37.093Z,16.85
2019-02-26T12:05:05.993Z,17.20
2019-02-26T12:07:34.849Z,17.33
2019-02-26T12:10:08.711Z,17.80
2019-02-26T12:12:31.099Z,17.70
2019-02-26T12:14:58.435Z,17.61
2019-02-26T12:17:24.716Z,16.70
2019-02-26T12:22:31.456Z,16.91
2019-02-26T12:24:58.877Z,16.81
2019-02-26T12:27:25.877Z,16.61
2019-02-26T12:29:54.376Z,16.85
2019-02-26T12:32:22.366Z,17.12
2019-02-26T12:34:51.284Z,17.45
2019-02-26T12:37:16.617Z,17.70
2019-02-26T12:39:43.738Z,17.84
2019-02-26T12:42:13.442Z,18.19
2019-02-26T12:44:42.361Z,17.91
2019-02-26T12:47:18.121Z,17.88
2019-02-26T12:49:45.132Z,17.67
2019-02-26T12:52:14.961Z,17.73
2019-02-26T12:54:42.728Z,17.89
2019-02-26T12:57:08.695Z,17.47
2019-02-26T12:59:37.610Z,17.47
2019-02-26T13:02:06.554Z,17.35
2019-02-26T13:04:33.135Z,18.11
2019-02-26T13:06:59.333Z,18.03
2019-02-26T13:09:26.897Z,17.96
2019-02-26T13:12:01.292Z,18.39
2019-02-26T13:14:21.297Z,18.58
2019-02-26T13:16:48.844Z,18.96
2019-02-26T13:19:21.437Z,18.57
2019-02-26T13:21:44.266Z,19.46
2019-02-26T13:26:38.955Z,20.01
2019-02-26T13:29:16.297Z,20.65
2019-02-26T13:31:50.787Z,20.42
2019-02-26T13:36:43.750Z,19.94
2019-02-26T13:39:09.842Z,21.04
2019-02-26T13:44:09.678Z,20.66
2019-02-26T13:46:38.244Z,20.55
2019-02-26T13:49:05.824Z,20.01
2019-02-26T13:51:32.484Z,20.99
2019-02-26T13:53:58.636Z,21.53
2019-02-26T13:56:24.823Z,21.75
2019-02-26T13:58:50.948Z,21.09
2019-02-26T14:01:17.133Z,21.00
2019-02-26T14:03:43.573Z,21.37
2019-02-26T14:06:09.750Z,21.48
2019-02-26T14:08:36.455Z,21.59
2019-02-26T14:11:06.147Z,21.36
2019-02-26T14:13:37.717Z,21.28
2019-02-26T14:16:08.126Z,21.29
2019-02-26T14:18:34.232Z,20.60
2019-02-26T14:23:39.432Z,20.94
2019-02-26T14:26:06.424Z,21.10
2019-02-26T14:28:32.617Z,20.46
2019-02-26T14:30:58.831Z,20.42
2019-02-26T14:33:25.077Z,19.98
2019-02-26T14:35:51.247Z,19.71
2019-02-26T14:38:17.579Z,19.44
2019-02-26T14:40:44.834Z,19.86
2019-02-26T14:43:11.247Z,18.58
2019-02-26T14:45:47.214Z,19.03
2019-02-26T14:48:13.865Z,19.17
2019-02-26T14:50:40.366Z,18.78
2019-02-26T14:53:12.736Z,19.21
2019-02-26T14:55:38.912Z,19.58
2019-02-26T14:58:10.581Z,20.58
2019-02-26T15:00:37.160Z,20.48
2019-02-26T15:03:07.181Z,20.58
2019-02-26T15:05:33.412Z,20.12
2019-02-26T15:07:59.752Z,20.45
2019-02-26T15:10:25.966Z,20.58
2019-02-26T15:12:52.797Z,19.80
2019-02-26T15:15:19.470Z,19.44
2019-02-26T15:17:45.937Z,19.45
2019-02-26T15:20:16.935Z,19.00
2019-02-26T15:22:43.242Z,19.18
2019-02-26T15:25:15.857Z,19.03
2019-02-26T15:27:43.491Z,19.56
2019-02-26T15:30:16.246Z,19.14
2019-02-26T15:32:44.178Z,18.83
2019-02-26T15:35:10.380Z,18.33
2019-02-26T15:37:38.337Z,18.26
2019-02-26T15:40:10.486Z,18.22
2019-02-26T15:42:36.841Z,18.23
2019-02-26T15:45:06.776Z,18.48
2019-02-26T15:47:33.422Z,18.76
2019-02-26T15:49:59.912Z,19.22
2019-02-26T15:52:32.944Z,19.33
2019-02-26T15:54:59.162Z,19.87
2019-02-26T15:57:25.494Z,19.87
2019-02-26T15:59:51.740Z,19.89
2019-02-26T16:02:17.955Z,20.04
2019-02-26T16:04:45.229Z,20.16
2019-02-26T16:07:11.437Z,19.84
2019-02-26T16:09:37.658Z,19.60
2019-02-26T16:12:06.400Z,19.20
2019-02-26T16:14:32.572Z,18.98
2019-02-26T16:16:58.911Z,19.01
2019-02-26T16:19:25.195Z,19.12
2019-02-26T16:21:51.315Z,19.45
2019-02-26T16:24:17.464Z,19.33
2019-02-26T16:26:43.782Z,19.29
2019-02-26T16:29:09.991Z,18.52
2019-02-26T16:31:36.314Z,18.38
2019-02-26T16:34:06.237Z,18.37
2019-02-26T16:36:32.663Z,18.11
2019-02-26T16:38:58.793Z,17.84
2019-02-26T16:41:24.900Z,17.62
2019-02-26T16:43:51.825Z,17.07
2019-02-26T16:46:18.822Z,16.90
2019-02-26T16:48:45.152Z,16.55
2019-02-26T16:51:21.578Z,15.45
2019-02-26T16:53:46.756Z,15.16
2019-02-26T16:56:13.305Z,15.21
2019-02-26T16:58:40.045Z,15.18
2019-02-26T17:01:13.177Z,15.08
2019-02-26T17:03:45.964Z,14.73
2019-02-26T17:06:12.370Z,14.19
2019-02-26T17:08:38.725Z,13.81
2019-02-26T17:11:08.979Z,13.87
2019-02-26T17:13:37.201Z,13.85
2019-02-26T17:16:05.663Z,13.88
2019-02-26T17:18:36.807Z,13.89
2019-02-26T17:21:05.624Z,14.01
2019-02-26T17:23:31.896Z,13.90
2019-02-26T17:26:00.373Z,13.78
2019-02-26T17:28:26.682Z,13.65
2019-02-26T17:30:53.348Z,13.47
2019-02-26T17:33:19.520Z,13.27
2019-02-26T17:35:45.749Z,13.10
2019-02-26T17:38:12.893Z,12.76
2019-02-26T17:40:40.097Z,12.62
2019-02-26T17:43:06.563Z,12.65
2019-02-26T17:45:34.936Z,12.60
2019-02-26T17:48:04.028Z,12.38
2019-02-26T17:50:38.022Z,11.78
2019-02-26T17:53:04.479Z,11.71
2019-02-26T17:55:30.817Z,11.74
2019-02-26T17:57:57.143Z,11.89
2019-02-26T18:00:25.650Z,11.84
2019-02-26T18:02:51.842Z,11.54
2019-02-26T18:05:18.105Z,11.27
2019-02-26T18:07:44.345Z,10.83
2019-02-26T18:10:13.523Z,10.49
2019-02-26T18:12:42.641Z,10.17
2019-02-26T18:15:10.070Z,10.31
2019-02-26T18:17:36.400Z,10.31
2019-02-26T18:20:05.338Z,10.39
2019-02-26T18:22:31.818Z,10.61
2019-02-26T18:24:58.124Z,10.68
2019-02-26T18:27:24.551Z,10.56
2019-02-26T18:29:50.797Z,10.56
2019-02-26T18:32:17.158Z,10.55
2019-02-26T18:34:43.617Z,10.44
2019-02-26T18:37:10.093Z,10.12
2019-02-26T18:39:36.484Z,9.73
2019-02-26T18:42:02.890Z,9.42
2019-02-26T18:44:29.377Z,9.30
2019-02-26T18:46:55.626Z,9.22
2019-02-26T18:49:23.089Z,9.15
2019-02-26T18:51:49.869Z,9.25
2019-02-26T18:54:17.716Z,9.45
2019-02-26T18:56:44.552Z,9.48
2019-02-26T18:59:10.673Z,9.48
2019-02-26T19:01:37.077Z,9.24
2019-02-26T19:04:03.414Z,9.28
2019-02-26T19:06:29.727Z,9.26
2019-02-26T19:08:56.037Z,8.72
2019-02-26T19:11:25.359Z,8.91
2019-02-26T19:13:51.427Z,9.13
2019-02-26T19:16:20.417Z,9.10
2019-02-26T19:18:46.087Z,8.98
2019-02-26T19:21:12.373Z,8.69
2019-02-26T19:23:38.919Z,8.62
2019-02-26T19:26:06.406Z,8.47
2019-02-26T19:28:32.561Z,8.30
2019-02-26T19:30:58.978Z,8.54
2019-02-26T19:33:25.260Z,8.70
2019-02-26T19:35:51.702Z,8.69
2019-02-26T19:38:17.949Z,8.53
2019-02-26T19:41:03.357Z,8.38
2019-02-26T19:43:29.811Z,8.29
2019-02-26T19:45:57.121Z,8.41
2019-02-26T19:48:23.576Z,8.37
2019-02-26T19:50:49.822Z,8.29
2019-02-26T19:53:16.324Z,8.25
2019-02-26T19:55:48.814Z,7.88
2019-02-26T19:58:12.726Z,7.72
2019-02-26T20:00:38.951Z,7.59
2019-02-26T20:03:06.242Z,7.55
2019-02-26T20:05:32.498Z,7.12
2019-02-26T20:07:58.621Z,6.85
2019-02-26T20:10:24.831Z,7.07
2019-02-26T20:12:51.023Z,7.39
2019-02-26T20:15:17.210Z,7.51
2019-02-26T20:17:43.693Z,7.38
2019-02-26T20:20:16.748Z,7.33
2019-02-26T20:22:43.214Z,7.28
2019-02-26T20:25:13.914Z,7.31
2019-02-26T20:27:40.163Z,7.27
2019-02-26T20:30:16.733Z,7.20
2019-02-26T20:32:43.034Z,7.20
2019-02-26T20:35:11.934Z,7.26
2019-02-26T20:37:40.145Z,7.11
2019-02-26T20:40:18.416Z,7.05
2019-02-26T20:42:45.205Z,6.57
2019-02-26T20:45:17.816Z,6.23
2019-02-26T20:47:46.506Z,6.46
2019-02-26T20:50:12.791Z,6.50
2019-02-26T20:52:39.229Z,6.56
2019-02-26T20:55:23.719Z,6.61
2019-02-26T21:00:25.254Z,6.21
2019-02-26T21:02:58.376Z,5.89
2019-02-26T21:05:25.158Z,5.90
2019-02-26T21:07:51.455Z,6.25
2019-02-26T21:10:18.565Z,6.10
2019-02-26T21:12:45.124Z,6.02
2019-02-26T21:15:24.030Z,5.86
2019-02-26T21:17:58.079Z,6.13
2019-02-26T21:20:24.989Z,5.83
2019-02-26T21:22:54.510Z,5.67
2019-02-26T21:25:19.106Z,5.66
2019-02-26T21:27:45.932Z,5.80
2019-02-26T21:30:14.448Z,5.85
2019-02-26T21:32:45.420Z,5.92
2019-02-26T21:35:13.106Z,5.92
2019-02-26T21:37:40.353Z,5.92
2019-02-26T21:40:17.932Z,5.55
2019-02-26T21:42:50.724Z,5.73
2019-02-26T21:45:17.455Z,5.70
2019-02-26T21:47:43.776Z,5.71
2019-02-26T21:50:13.328Z,5.63
2019-02-26T21:52:42.139Z,5.71
2019-02-26T21:55:13.393Z,5.79
2019-02-26T21:57:39.566Z,5.84
2019-02-26T22:00:20.281Z,5.56
2019-02-26T22:02:52.071Z,5.59
2019-02-26T22:05:16.945Z,5.60
2019-02-26T22:07:44.478Z,5.56
2019-02-26T22:10:15.163Z,5.57
2019-02-26T22:12:42.382Z,5.54
2019-02-26T22:15:11.093Z,5.56
2019-02-26T22:17:37.449Z,5.45
2019-02-26T22:20:23.694Z,5.29
2019-02-26T22:22:45.280Z,5.46
2019-02-26T22:25:15.825Z,5.57
2019-02-26T22:27:40.916Z,5.54
2019-02-26T22:30:10.821Z,5.51
2019-02-26T22:32:38.751Z,5.48
2019-02-26T22:35:07.187Z,5.51
2019-02-26T22:37:33.379Z,5.19
2019-02-26T22:39:59.688Z,4.81
2019-02-26T22:42:26.535Z,4.29
2019-02-26T22:44:54.839Z,4.15
2019-02-26T22:47:21.007Z,4.12
2019-02-26T22:49:47.350Z,3.90
2019-02-26T22:52:13.443Z,3.65
2019-02-26T22:54:40.718Z,4.22
2019-02-26T22:57:07.618Z,4.28
2019-02-26T22:59:33.845Z,4.35
2019-02-26T23:02:00.241Z,4.34
2019-02-26T23:04:32.566Z,4.25
2019-02-26T23:06:58.954Z,4.01
2019-02-26T23:09:26.863Z,3.92
2019-02-26T23:11:53.229Z,4.12
2019-02-26T23:14:19.938Z,4.32
2019-02-26T23:16:46.375Z,4.36
2019-02-26T23:19:12.974Z,4.28
2019-02-26T23:21:40.841Z,4.21
2019-02-26T23:24:07.232Z,4.23
2019-02-26T23:26:34.132Z,4.19
2019-02-26T23:29:04.413Z,4.23
2019-02-26T23:31:32.876Z,4.40
2019-02-26T23:33:59.527Z,4.25
2019-02-26T23:36:28.579Z,4.08
2019-02-26T23:38:54.031Z,3.54
2019-02-26T23:41:20.426Z,3.27
2019-02-26T23:43:46.726Z,3.14
2019-02-26T23:46:14.041Z,3.05
2019-02-26T23:48:40.993Z,2.87
2019-02-26T23:51:08.841Z,2.73
2019-02-26T23:53:34.975Z,2.84
2019-02-26T23:56:04.970Z,2.83
2019-02-26T23:58:31.674Z,2.94
